Tarifa, Spain
Current Conditions -  °F | °C
As of 7:30 PM on Saturday 25 Oct 2014 (Local Time) from LEAG Reporting Station
Clear Clear  
Wind Chill: 70°   Ceiling: Unl
Heat Index: 70°   Visibility: 6mi
Dew Point: 59°   Wind: 3mph
Humidity: 68%   Direction: 90°E
Pressure: 30.06"   Gusts: NA
Location:  36.01°N, 5.6°W
Report Text: LEAG 251730Z AUTO 09003KT 040V140 CAVOK 21/15 Q1018
Loading
Personal Weather Stations






























Interactive Weather Map
Tropical Storm Tracking
New forecast layout! Learn more

10-Day Weather Forecast

Advertisements
Track Severe Weather on mobile